Time;durP1;ratioP1;P1;durP2;ratioP2;P2;SDS_P1;SDS_P2;PMS_P1;PMS_P2;Temp;Humidity;BMP_temperature;BMP_pressure;BME280_temperature;BME280_humidity;BME280_pressure;Samples;Min_cycle;Max_cycle;Signal;HPM_P1;HPM_P2
2020/12/10 00:02:01;;;;;;;58.10;14.63;;;;;;;1.18;100.00;100394.84;5017272;28;20029;-67
2020/12/10 00:04:27;;;;;;;57.40;15.23;;;;;;;1.18;100.00;100384.53;5044105;28;20116;-69
2020/12/10 00:06:52;;;;;;;65.87;14.93;;;;;;;1.16;100.00;100375.88;5010286;28;20022;-68
2020/12/10 00:09:17;;;;;;;59.37;14.63;;;;;;;1.15;100.00;100378.41;5025318;28;20451;-68
2020/12/10 00:11:43;;;;;;;54.30;14.00;;;;;;;1.12;100.00;100379.19;5010158;28;20018;-67
2020/12/10 00:14:09;;;;;;;64.67;15.30;;;;;;;1.11;100.00;100372.28;5015306;28;20025;-69
2020/12/10 00:16:34;;;;;;;60.63;15.17;;;;;;;1.11;100.00;100367.16;5013699;28;20029;-68
2020/12/10 00:18:59;;;;;;;60.20;15.10;;;;;;;1.10;100.00;100370.53;5019101;28;20033;-68
2020/12/10 00:21:25;;;;;;;57.37;14.23;;;;;;;1.12;100.00;100374.03;5027835;28;20104;-67
2020/12/10 00:23:50;;;;;;;59.67;14.63;;;;;;;1.14;100.00;100372.41;5014804;28;20476;-66
2020/12/10 00:26:18;;;;;;;58.37;15.53;;;;;;;1.16;100.00;100365.59;5017725;28;20034;-67
2020/12/10 00:28:44;;;;;;;48.27;13.67;;;;;;;1.16;100.00;100362.13;5011878;28;20396;-68
2020/12/10 00:31:09;;;;;;;55.17;14.23;;;;;;;1.17;100.00;100361.31;5024687;28;20285;-67
2020/12/10 00:33:35;;;;;;;58.93;14.40;;;;;;;1.18;100.00;100355.34;5021830;28;20116;-67
2020/12/10 00:36:01;;;;;;;53.83;14.23;;;;;;;1.17;100.00;100351.00;5017805;28;20022;-68
2020/12/10 00:38:27;;;;;;;51.33;13.63;;;;;;;1.18;100.00;100353.63;5014191;28;20467;-67
2020/12/10 00:40:54;;;;;;;56.50;14.50;;;;;;;1.20;100.00;100355.38;5014430;28;20282;-68
2020/12/10 00:43:19;;;;;;;53.33;14.13;;;;;;;1.18;100.00;100348.50;5022953;28;20287;-68
2020/12/10 00:45:46;;;;;;;56.57;14.40;;;;;;;1.08;100.00;100341.28;5010239;28;20744;-67
2020/12/10 00:48:11;;;;;;;64.17;14.37;;;;;;;1.13;100.00;100344.03;5010216;28;20076;-67
2020/12/10 00:50:37;;;;;;;56.97;14.50;;;;;;;1.12;100.00;100335.44;5011440;28;20276;-68
2020/12/10 00:53:02;;;;;;;49.93;13.07;;;;;;;1.18;100.00;100334.75;5007733;28;20029;-67
2020/12/10 00:55:28;;;;;;;52.43;14.83;;;;;;;1.16;100.00;100334.69;5009215;28;20029;-68
2020/12/10 00:57:53;;;;;;;59.87;14.63;;;;;;;1.15;100.00;100338.09;5052553;28;20030;-68
2020/12/10 01:00:19;;;;;;;60.10;13.67;;;;;;;1.15;100.00;100332.94;5028259;28;20097;-68
2020/12/10 01:02:44;;;;;;;55.70;14.00;;;;;;;1.16;100.00;100331.25;5009649;28;20029;-68
2020/12/10 01:05:13;;;;;;;53.37;14.33;;;;;;;1.18;100.00;100329.59;5025190;28;20030;-69
2020/12/10 01:07:38;;;;;;;60.40;14.50;;;;;;;1.16;100.00;100329.53;5020506;28;20374;-68
2020/12/10 01:10:05;;;;;;;59.13;13.83;;;;;;;1.18;100.00;100327.88;5009923;28;20275;-68
2020/12/10 01:12:32;;;;;;;50.23;12.77;;;;;;;1.17;100.00;100326.13;5026224;28;20565;-68
2020/12/10 01:14:57;;;;;;;54.50;14.53;;;;;;;1.18;100.00;100327.88;5013590;28;20315;-67
2020/12/10 01:17:23;;;;;;;51.97;14.37;;;;;;;1.17;100.00;100325.25;5024525;28;20307;-68
2020/12/10 01:19:48;;;;;;;56.47;13.50;;;;;;;1.18;100.00;100322.75;5028092;28;20085;-67
2020/12/10 01:22:14;;;;;;;63.70;16.50;;;;;;;1.21;100.00;100331.38;5020166;28;20036;-69
2020/12/10 01:24:39;;;;;;;59.77;15.07;;;;;;;1.22;100.00;100328.00;5010991;28;20153;-67
2020/12/10 01:27:04;;;;;;;64.60;14.47;;;;;;;1.21;100.00;100327.09;5013080;28;20095;-69
2020/12/10 01:29:30;;;;;;;49.93;14.17;;;;;;;1.20;100.00;100319.34;5010853;28;20022;-68
2020/12/10 01:31:55;;;;;;;54.10;14.30;;;;;;;1.22;100.00;100328.00;5016346;28;20606;-68
2020/12/10 01:34:21;;;;;;;55.50;14.63;;;;;;;1.19;100.00;100310.75;5023412;28;20025;-68
2020/12/10 01:36:46;;;;;;;55.90;15.10;;;;;;;1.22;100.00;100312.56;5018055;28;20026;-69
2020/12/10 01:39:12;;;;;;;51.67;15.07;;;;;;;1.17;100.00;100313.25;5024602;28;20467;-68
2020/12/10 01:41:38;;;;;;;53.90;14.10;;;;;;;1.24;100.00;100316.94;5018684;28;20108;-68
2020/12/10 01:44:06;;;;;;;57.83;15.03;;;;;;;1.24;100.00;100305.75;5013268;28;20397;-67
2020/12/10 01:46:33;;;;;;;57.40;16.47;;;;;;;1.24;100.00;100313.47;5017843;28;20538;-68
2020/12/10 01:49:01;;;;;;;55.03;14.50;;;;;;;1.25;100.00;100315.22;5019983;28;20647;-69
2020/12/10 01:51:27;;;;;;;53.83;14.03;;;;;;;1.26;100.00;100314.41;5024029;28;20280;-68
2020/12/10 01:53:52;;;;;;;54.77;15.07;;;;;;;1.27;100.00;100318.72;5022602;28;20326;-68
2020/12/10 01:56:18;;;;;;;50.37;14.97;;;;;;;1.30;100.00;100331.69;5010104;28;20028;-68
2020/12/10 01:58:43;;;;;;;54.97;15.97;;;;;;;1.30;100.00;100321.38;5022488;28;20096;-68
2020/12/10 02:01:09;;;;;;;52.27;15.47;;;;;;;1.30;100.00;100317.09;5031618;28;20029;-66
2020/12/10 02:03:34;;;;;;;48.07;13.77;;;;;;;1.32;100.00;100324.88;5032220;28;20026;-67
2020/12/10 02:06:00;;;;;;;47.37;14.43;;;;;;;1.33;100.00;100316.31;5019238;28;20022;-69
2020/12/10 02:08:25;;;;;;;54.50;15.97;;;;;;;1.31;100.00;100313.72;5024700;28;20112;-69
2020/12/10 02:10:51;;;;;;;56.27;16.57;;;;;;;1.32;100.00;100310.31;5025150;28;20026;-67
2020/12/10 02:13:16;;;;;;;53.90;15.47;;;;;;;1.31;100.00;100312.84;5023622;28;20497;-67
2020/12/10 02:15:49;;;;;;;56.47;15.67;;;;;;;1.32;100.00;100304.28;5024300;28;20439;-68
2020/12/10 02:18:15;;;;;;;54.20;15.60;;;;;;;1.31;100.00;100307.69;5019165;28;20048;-67
2020/12/10 02:20:41;;;;;;;52.90;16.00;;;;;;;1.29;100.00;100299.03;5027707;28;20503;-66
2020/12/10 02:23:08;;;;;;;48.50;14.87;;;;;;;1.33;100.00;100303.44;5011842;28;20053;-66
2020/12/10 02:25:35;;;;;;;57.20;16.40;;;;;;;1.33;100.00;100299.22;5023614;28;20727;-66
2020/12/10 02:28:11;;;;;;;54.73;15.20;;;;;;;1.32;100.00;100286.25;5032245;28;20296;-68
2020/12/10 02:30:37;;;;;;;56.33;15.47;;;;;;;1.33;100.00;100296.63;5021853;28;20280;-67
2020/12/10 02:33:05;;;;;;;57.77;16.63;;;;;;;1.32;100.00;100288.81;5029296;28;20271;-66
2020/12/10 02:35:31;;;;;;;54.53;15.13;;;;;;;1.33;100.00;100285.44;5013477;28;20288;-67
2020/12/10 02:37:59;;;;;;;53.53;16.27;;;;;;;1.31;100.00;100281.94;5012265;28;20288;-67
2020/12/10 02:40:27;;;;;;;59.20;15.07;;;;;;;1.34;100.00;100284.63;5023351;28;20312;-67
2020/12/10 02:42:52;;;;;;;65.57;17.03;;;;;;;1.32;100.00;100274.25;5028089;28;20275;-66
2020/12/10 02:45:19;;;;;;;53.93;16.40;;;;;;;1.29;100.00;100268.13;5030778;28;20275;-68
2020/12/10 02:47:45;;;;;;;50.17;17.23;;;;;;;1.31;100.00;100271.63;5001927;28;20455;-67
2020/12/10 02:50:11;;;;;;;55.20;16.13;;;;;;;1.30;100.00;100269.88;5027631;28;20287;-66
2020/12/10 02:52:36;;;;;;;67.70;17.67;;;;;;;1.30;100.00;100259.56;5018036;28;20643;-67
2020/12/10 02:55:03;;;;;;;53.97;15.63;;;;;;;1.29;100.00;100257.84;5030350;28;20029;-66
2020/12/10 02:57:28;;;;;;;57.67;16.97;;;;;;;1.26;100.00;100258.63;5027517;28;20061;-67
2020/12/10 02:59:54;;;;;;;62.50;17.93;;;;;;;1.26;100.00;100268.03;5022144;28;20311;-67
2020/12/10 03:02:19;;;;;;;56.93;18.50;;;;;;;1.24;100.00;100265.44;5014587;28;20388;-68
2020/12/10 03:04:45;;;;;;;57.90;16.20;;;;;;;1.25;100.00;100269.75;5026897;28;20618;-66
2020/12/10 03:07:10;;;;;;;54.07;16.47;;;;;;;1.28;100.00;100266.38;5029880;28;20036;-67
2020/12/10 03:09:36;;;;;;;58.07;16.57;;;;;;;1.28;100.00;100256.09;5013386;28;20034;-67
2020/12/10 03:12:01;;;;;;;60.70;15.80;;;;;;;1.28;100.00;100256.09;5026786;28;20467;-67
2020/12/10 03:14:26;;;;;;;59.17;16.20;;;;;;;1.26;100.00;100248.31;5030883;28;20029;-67
2020/12/10 03:16:52;;;;;;;50.70;15.90;;;;;;;1.26;100.00;100239.72;5030215;28;20030;-69
2020/12/10 03:19:17;;;;;;;59.57;16.43;;;;;;;1.22;100.00;100240.47;5010978;28;20030;-69
2020/12/10 03:21:43;;;;;;;59.43;16.80;;;;;;;1.18;100.00;100235.19;5013555;28;20100;-70
2020/12/10 03:24:08;;;;;;;58.67;17.07;;;;;;;1.18;100.00;100235.19;5013830;28;20029;-69
2020/12/10 03:26:34;;;;;;;53.13;17.40;;;;;;;1.17;100.00;100230.00;5013833;28;20026;-69
2020/12/10 03:29:00;;;;;;;50.93;16.30;;;;;;;1.16;100.00;100226.56;5021538;28;20029;-69
2020/12/10 03:31:25;;;;;;;48.57;14.73;;;;;;;1.14;100.00;100228.22;5029941;28;20034;-69
2020/12/10 03:33:51;;;;;;;51.37;15.13;;;;;;;1.16;100.00;100226.56;5012882;28;20022;-68
2020/12/10 03:36:17;;;;;;;53.93;14.73;;;;;;;1.16;100.00;100218.81;5021362;28;20179;-69
2020/12/10 03:38:42;;;;;;;53.73;16.43;;;;;;;1.15;100.00;100219.66;5021640;28;20029;-69
2020/12/10 03:41:08;;;;;;;54.17;15.97;;;;;;;1.16;100.00;100221.41;5019938;28;20026;-69
2020/12/10 03:43:33;;;;;;;54.37;16.23;;;;;;;1.17;100.00;100228.28;5028243;28;20033;-68
2020/12/10 03:46:02;;;;;;;54.23;16.10;;;;;;;1.16;100.00;100223.97;5025661;28;20026;-68
2020/12/10 03:48:27;;;;;;;51.20;16.87;;;;;;;1.15;100.00;100219.66;5027070;28;20040;-70
2020/12/10 03:50:53;;;;;;;55.23;15.70;;;;;;;1.09;100.00;100209.19;5020771;28;20575;-70
2020/12/10 03:53:18;;;;;;;54.00;16.33;;;;;;;1.11;100.00;100217.81;5027363;28;20401;-68
2020/12/10 03:55:44;;;;;;;57.60;16.10;;;;;;;1.11;100.00;100222.97;5011851;28;20496;-70
2020/12/10 03:58:09;;;;;;;60.60;17.73;;;;;;;1.12;100.00;100219.56;5022224;28;20061;-69
2020/12/10 04:00:34;;;;;;;59.13;17.63;;;;;;;1.15;100.00;100224.81;5009646;28;20029;-69
2020/12/10 04:03:00;;;;;;;57.77;17.43;;;;;;;1.15;100.00;100217.06;5018315;28;20116;-68
2020/12/10 04:05:26;;;;;;;47.80;14.53;;;;;;;1.17;100.00;100218.00;5010970;28;20022;-68
2020/12/10 04:07:52;;;;;;;58.57;18.23;;;;;;;1.12;100.00;100211.84;5029852;28;20047;-68
2020/12/10 04:10:17;;;;;;;61.53;18.47;;;;;;;1.08;100.00;100206.53;5027837;28;20279;-68
2020/12/10 04:12:43;;;;;;;54.77;18.13;;;;;;;1.04;100.00;100205.56;5018786;28;20030;-68
2020/12/10 04:15:08;;;;;;;57.03;16.87;;;;;;;1.03;100.00;100206.41;5014712;28;20037;-67
2020/12/10 04:17:34;;;;;;;60.03;18.27;;;;;;;1.01;100.00;100210.63;5011209;28;20060;-68
2020/12/10 04:19:59;;;;;;;56.60;16.20;;;;;;;0.99;100.00;100222.59;5011384;28;20116;-68
2020/12/10 04:22:25;;;;;;;58.67;18.17;;;;;;;0.95;100.00;100215.56;5029037;28;20026;-69
2020/12/10 04:24:50;;;;;;;60.63;16.63;;;;;;;0.92;100.00;100215.47;5052828;28;20026;-67
2020/12/10 04:27:15;;;;;;;62.97;17.00;;;;;;;0.91;100.00;100218.00;5053014;28;20035;-68
2020/12/10 04:29:41;;;;;;;64.33;18.07;;;;;;;0.88;100.00;100218.78;5028315;28;20037;-68
2020/12/10 04:32:06;;;;;;;61.20;16.50;;;;;;;0.86;100.00;100212.72;5029091;28;20017;-68
2020/12/10 04:34:32;;;;;;;59.47;17.67;;;;;;;0.87;100.00;100217.03;5022898;28;20131;-69
2020/12/10 04:36:57;;;;;;;64.13;17.50;;;;;;;0.91;100.00;100221.44;5022271;28;20021;-67
2020/12/10 04:39:22;;;;;;;58.90;17.67;;;;;;;0.93;100.00;100211.19;5024117;28;20373;-67
2020/12/10 04:41:49;;;;;;;66.27;20.20;;;;;;;0.94;100.00;100215.53;5029389;28;20021;-66
2020/12/10 04:44:14;;;;;;;62.60;17.77;;;;;;;0.93;100.00;100217.22;5024960;28;20057;-67
2020/12/10 04:46:40;;;;;;;57.20;18.60;;;;;;;0.93;100.00;100217.22;5010185;28;20374;-68
2020/12/10 04:49:07;;;;;;;61.67;17.87;;;;;;;0.92;100.00;100210.31;5013510;28;20527;-66
2020/12/10 04:51:35;;;;;;;71.93;18.43;;;;;;;0.91;100.00;100211.16;5014914;28;20477;-68
2020/12/10 04:54:02;;;;;;;62.47;19.87;;;;;;;0.92;100.00;100205.19;5009805;28;20814;-66
2020/12/10 04:56:28;;;;;;;87.33;24.93;;;;;;;0.89;100.00;100197.38;5020165;28;20310;-67
2020/12/10 04:58:53;;;;;;;85.87;25.17;;;;;;;0.88;100.00;100193.06;5015327;28;20708;-68
2020/12/10 05:01:20;;;;;;;70.90;22.40;;;;;;;0.88;100.00;100200.78;5026965;28;20377;-67
2020/12/10 05:03:49;;;;;;;72.00;21.93;;;;;;;0.87;100.00;100201.59;5028725;28;20025;-66
2020/12/10 05:06:15;;;;;;;73.57;21.57;;;;;;;0.86;100.00;100205.00;5015833;28;20295;-66
2020/12/10 05:08:42;;;;;;;67.93;19.37;;;;;;;0.86;100.00;100200.72;5011475;28;20277;-66
2020/12/10 05:11:09;;;;;;;61.23;16.87;;;;;;;0.88;100.00;100209.38;5046181;28;20951;-67
2020/12/10 05:13:35;;;;;;;65.40;18.57;;;;;;;0.88;100.00;100208.50;5019519;28;20268;-67
2020/12/10 05:16:01;;;;;;;68.73;19.23;;;;;;;0.87;100.00;100206.75;5024979;28;20269;-67
2020/12/10 05:18:27;;;;;;;66.47;18.37;;;;;;;0.87;100.00;100202.47;5022454;28;20673;-67
2020/12/10 05:20:57;;;;;;;59.27;16.90;;;;;;;0.89;100.00;100210.25;5022043;28;20456;-68
2020/12/10 05:23:36;;;;;;;67.63;18.20;;;;;;;0.89;100.00;100210.25;5012236;28;20280;-67
2020/12/10 05:26:02;;;;;;;66.97;17.67;;;;;;;0.90;100.00;100206.84;5014650;28;20332;-67
2020/12/10 05:28:40;;;;;;;65.27;19.10;;;;;;;0.91;100.00;100218.88;5015976;28;20287;-67
2020/12/10 05:31:11;;;;;;;61.43;18.70;;;;;;;0.91;100.00;100218.00;5018728;28;20318;-68
2020/12/10 05:33:50;;;;;;;67.33;18.13;;;;;;;0.90;100.00;100219.69;5055796;28;20287;-66
2020/12/10 05:36:16;;;;;;;56.90;16.20;;;;;;;0.90;100.00;100222.28;5028196;28;20681;-67
2020/12/10 05:38:52;;;;;;;59.67;17.43;;;;;;;0.92;100.00;100220.63;5033756;28;20268;-67
2020/12/10 05:41:20;;;;;;;63.13;18.93;;;;;;;0.91;100.00;100220.56;5020322;28;20025;-67
2020/12/10 05:43:45;;;;;;;67.33;18.50;;;;;;;0.91;100.00;100213.72;5019431;28;20338;-67
2020/12/10 05:46:17;;;;;;;59.33;18.27;;;;;;;0.95;100.00;100220.72;5025810;28;20283;-67
2020/12/10 05:48:44;;;;;;;65.30;18.40;;;;;;;0.95;100.00;100214.69;5019596;28;20293;-68
2020/12/10 05:51:16;;;;;;;65.07;17.70;;;;;;;0.94;100.00;100210.38;5015842;28;20806;-68
2020/12/10 05:53:42;;;;;;;63.13;17.33;;;;;;;0.92;100.00;100210.31;5014120;28;20323;-68
2020/12/10 05:56:10;;;;;;;56.23;16.23;;;;;;;0.95;100.00;100213.00;5019402;28;20269;-67
2020/12/10 05:58:52;;;;;;;65.23;18.17;;;;;;;0.95;100.00;100210.41;5021165;28;20613;-67
2020/12/10 06:01:27;;;;;;;58.57;18.50;;;;;;;0.97;100.00;100213.03;5012417;28;20265;-66
2020/12/10 06:03:54;;;;;;;63.10;18.33;;;;;;;0.97;100.00;100213.94;5025761;28;20276;-67
2020/12/10 06:06:21;;;;;;;52.37;16.50;;;;;;;0.98;100.00;100219.97;5013576;28;20288;-67
2020/12/10 06:08:49;;;;;;;60.23;18.00;;;;;;;0.99;100.00;100221.72;5024595;28;20280;-66
2020/12/10 06:11:19;;;;;;;55.43;17.63;;;;;;;1.00;100.00;100218.31;5019386;28;20354;-67
2020/12/10 06:13:46;;;;;;;62.87;17.47;;;;;;;1.00;100.00;100220.88;5020228;28;20273;-68
2020/12/10 06:16:16;;;;;;;56.60;16.97;;;;;;;0.98;100.00;100215.69;5025501;28;20272;-66
2020/12/10 06:19:01;;;;;;;51.23;17.00;;;;;;;1.00;100.00;100208.88;5021506;28;20347;-67
2020/12/10 06:21:43;;;;;;;66.87;17.47;;;;;;;1.00;100.00;100213.16;5012536;28;20260;-67
2020/12/10 06:24:26;;;;;;;55.28;16.33;;;;;;;1.01;100.00;100215.78;5012294;28;20364;-67
2020/12/10 06:26:59;;;;;;;60.07;18.23;;;;;;;1.01;100.00;100217.47;5020851;28;20030;-67
2020/12/10 06:29:26;;;;;;;62.67;17.40;;;;;;;1.00;100.00;100216.59;5017332;28;20331;-67
2020/12/10 06:32:13;;;;;;;61.00;17.97;;;;;;;1.03;100.00;100211.53;5011997;28;20133;-67
2020/12/10 06:34:55;;;;;;;56.70;18.20;;;;;;;1.03;100.00;100208.97;5012371;28;20261;-68
2020/12/10 06:37:25;;;;;;;58.65;16.60;;;;;;;1.04;100.00;100208.13;5011202;28;20652;-67
2020/12/10 06:39:56;;;;;;;51.10;16.23;;;;;;;1.04;100.00;100205.56;5013195;28;20034;-67
2020/12/10 06:42:22;;;;;;;52.43;16.63;;;;;;;1.08;100.00;100204.81;5020862;28;20732;-68
2020/12/10 06:44:48;;;;;;;58.00;17.97;;;;;;;1.07;100.00;100204.78;5013585;28;20301;-66
2020/12/10 06:47:14;;;;;;;54.33;16.10;;;;;;;1.07;100.00;100205.66;5012035;28;20377;-66
2020/12/10 06:49:39;;;;;;;59.23;17.50;;;;;;;1.10;100.00;100210.94;5012900;28;20125;-65
2020/12/10 06:52:12;;;;;;;51.93;17.37;;;;;;;1.18;100.00;100208.56;5026662;28;20225;-67
2020/12/10 06:54:56;;;;;;;;;;;;;;;1.17;100.00;100201.69;5030816;28;20029;-67
2020/12/10 06:57:21;;;;;;;47.70;15.77;;;;;;;1.17;100.00;100205.13;5030890;28;20533;-66
2020/12/10 06:59:47;;;;;;;52.83;15.77;;;;;;;1.21;100.00;100207.78;5025774;28;20268;-67
2020/12/10 07:02:19;;;;;;;53.40;16.47;;;;;;;1.25;100.00;100214.78;5012258;28;20034;-67
2020/12/10 07:04:49;;;;;;;50.95;17.35;;;;;;;1.27;100.00;100208.84;5027690;28;20029;-66
2020/12/10 07:07:20;;;;;;;55.27;16.33;;;;;;;1.27;100.00;100215.72;5031091;28;20029;-67
2020/12/10 07:09:49;;;;;;;52.73;16.40;;;;;;;1.31;100.00;100214.97;5015984;28;20273;-65
2020/12/10 07:12:28;;;;;;;53.73;16.93;;;;;;;1.28;100.00;100209.72;5011709;28;20277;-66
2020/12/10 07:15:13;;;;;;;37.27;13.17;;;;;;;1.33;100.00;100203.91;5010857;28;20383;-66
2020/12/10 07:17:38;;;;;;;48.40;15.07;;;;;;;1.37;100.00;100215.16;5011703;28;20287;-66
2020/12/10 07:20:04;;;;;;;46.57;13.33;;;;;;;1.41;100.00;100223.03;5013083;28;20763;-66
2020/12/10 07:22:30;;;;;;;45.83;14.30;;;;;;;1.38;100.00;100222.94;5016624;28;20032;-66
2020/12/10 07:24:55;;;;;;;55.63;15.37;;;;;;;1.38;100.00;100219.50;5018486;28;20049;-66
2020/12/10 07:27:21;;;;;;;56.10;17.30;;;;;;;1.35;100.00;100216.84;5023469;28;20029;-66
2020/12/10 07:29:52;;;;;;;55.73;16.57;;;;;;;1.31;100.00;100215.84;5012415;28;20496;-67
2020/12/10 07:32:18;;;;;;;58.83;17.07;;;;;;;1.28;100.00;100212.31;5009991;28;20034;-66
2020/12/10 07:34:44;;;;;;;57.77;16.40;;;;;;;1.27;100.00;100219.16;5029309;28;20280;-67
2020/12/10 07:37:16;;;;;;;57.07;15.93;;;;;;;1.30;100.00;100220.94;5031149;28;20392;-67
2020/12/10 07:39:42;;;;;;;47.73;15.57;;;;;;;1.28;100.00;100220.03;5012495;28;20287;-66
2020/12/10 07:42:07;;;;;;;53.23;15.83;;;;;;;1.32;100.00;100227.88;5011189;28;20347;-67
2020/12/10 07:44:34;;;;;;;55.07;15.93;;;;;;;1.34;100.00;100220.25;5011850;28;20132;-66
2020/12/10 07:47:01;;;;;;;55.67;16.80;;;;;;;1.34;100.00;100215.09;5011166;28;20392;-67
2020/12/10 07:49:29;;;;;;;47.57;14.70;;;;;;;1.36;100.00;100218.56;5056790;28;20268;-66
2020/12/10 07:52:08;;;;;;;55.40;15.20;;;;;;;1.37;100.00;100216.03;5030497;28;20256;-66
2020/12/10 07:54:44;;;;;;;49.17;15.17;;;;;;;1.37;100.00;100216.03;5026909;28;20268;-66
2020/12/10 07:57:37;;;;;;;63.43;16.30;;;;;;;1.37;100.00;100222.91;5030503;28;20635;-67
2020/12/10 08:00:16;;;;;;;50.70;15.23;;;;;;;1.38;100.00;100215.22;5021728;28;20296;-67
2020/12/10 08:03:07;;;;;;;51.70;14.50;;;;;;;1.40;100.00;100215.25;5028826;28;20276;-67
2020/12/10 08:05:34;;;;;;;54.47;14.93;;;;;;;1.40;100.00;100220.41;5025324;28;20684;-66
2020/12/10 08:08:00;;;;;;;51.17;15.17;;;;;;;1.42;100.00;100216.16;5028469;28;20267;-66
2020/12/10 08:10:28;;;;;;;53.30;15.93;;;;;;;1.44;100.00;100212.81;5008806;28;20268;-67
2020/12/10 08:13:11;;;;;;;46.63;15.37;;;;;;;1.48;100.00;100218.94;5010470;28;20485;-66
2020/12/10 08:15:41;;;;;;;49.20;15.27;;;;;;;1.48;100.00;100218.94;5010182;28;20368;-66
2020/12/10 08:18:09;;;;;;;47.83;15.77;;;;;;;1.50;100.00;100221.56;5010925;28;20274;-68
2020/12/10 08:20:44;;;;;;;53.77;14.43;;;;;;;1.51;100.00;100219.03;5010485;28;20272;-66
2020/12/10 08:23:14;;;;;;;54.07;14.40;;;;;;;1.54;100.00;100219.13;5010580;28;20272;-66
2020/12/10 08:25:41;;;;;;;46.43;15.20;;;;;;;1.57;100.00;100219.19;5010155;28;20485;-67
2020/12/10 08:28:08;;;;;;;51.93;14.53;;;;;;;1.57;100.00;100219.19;5010829;28;20264;-66
2020/12/10 08:30:35;;;;;;;55.83;14.93;;;;;;;1.57;100.00;100214.03;5008584;28;20265;-67
2020/12/10 08:33:02;;;;;;;47.33;14.43;;;;;;;1.63;100.00;100216.81;5010472;28;20268;-67
2020/12/10 08:35:28;;;;;;;52.33;14.97;;;;;;;1.69;100.00;100213.53;5010182;28;20268;-67
2020/12/10 08:37:54;;;;;;;48.53;14.40;;;;;;;1.65;100.00;100212.56;5012979;28;20279;-66
2020/12/10 08:40:28;;;;;;;42.07;14.10;;;;;;;1.66;100.00;100216.03;5014216;28;20621;-67
2020/12/10 08:42:55;;;;;;;57.83;15.67;;;;;;;1.63;100.00;100213.38;5010203;28;20040;-66
2020/12/10 08:45:44;;;;;;;61.97;16.43;;;;;;;1.60;100.00;100209.00;5008889;28;20741;-67
2020/12/10 08:48:11;;;;;;;42.67;13.63;;;;;;;1.62;100.00;100217.66;5011620;28;20699;-66
2020/12/10 08:50:36;;;;;;;49.00;14.37;;;;;;;1.63;100.00;100219.41;5009334;28;20646;-67
2020/12/10 08:53:03;;;;;;;59.17;14.23;;;;;;;1.65;100.00;100228.03;5009303;28;20283;-66
2020/12/10 08:55:38;;;;;;;52.90;15.47;;;;;;;1.67;100.00;100216.06;5017873;28;20497;-66
2020/12/10 08:58:04;;;;;;;49.60;14.67;;;;;;;1.67;100.00;100220.34;5010393;28;20351;-67
2020/12/10 09:00:30;;;;;;;50.20;15.23;;;;;;;1.69;100.00;100223.84;5007699;28;20347;-67
2020/12/10 09:02:55;;;;;;;52.93;14.73;;;;;;;1.69;100.00;100223.84;4990309;28;20448;-66
2020/12/10 09:05:21;;;;;;;62.53;15.30;;;;;;;1.72;100.00;100224.81;4990566;28;20509;-66
2020/12/10 09:07:46;;;;;;;53.93;13.80;;;;;;;1.76;100.00;100215.47;5020431;28;20084;-66
2020/12/10 09:10:11;;;;;;;47.87;14.20;;;;;;;1.77;100.00;100218.09;5014215;28;20026;-66
2020/12/10 09:12:37;;;;;;;53.07;13.80;;;;;;;1.79;100.00;100219.84;5017628;28;20088;-66
2020/12/10 09:15:02;;;;;;;54.37;15.47;;;;;;;1.80;100.00;100221.56;5032146;28;20025;-66
2020/12/10 09:17:28;;;;;;;59.93;14.67;;;;;;;1.80;100.00;100216.41;5018351;28;20026;-66
2020/12/10 09:19:53;;;;;;;57.10;14.70;;;;;;;1.85;100.00;100214.88;5031804;28;20562;-66
2020/12/10 09:22:19;;;;;;;51.00;13.80;;;;;;;1.88;100.00;100214.94;5032317;28;20056;-66
2020/12/10 09:24:44;;;;;;;53.43;15.10;;;;;;;1.85;100.00;100218.31;5016071;28;20032;-66
2020/12/10 09:27:10;;;;;;;53.07;14.83;;;;;;;1.80;100.00;100206.13;5045089;28;20508;-66
2020/12/10 09:29:38;;;;;;;52.13;15.87;;;;;;;1.84;100.00;100213.13;5012385;28;20108;-67
2020/12/10 09:32:04;;;;;;;50.97;14.70;;;;;;;1.88;100.00;100225.25;5013041;28;20037;-67
2020/12/10 09:34:29;;;;;;;60.87;14.97;;;;;;;1.88;100.00;100217.53;5013656;28;20624;-66
2020/12/10 09:36:55;;;;;;;61.73;16.67;;;;;;;1.87;100.00;100214.06;5012495;28;20049;-67
2020/12/10 09:39:20;;;;;;;59.77;15.87;;;;;;;1.90;100.00;100213.28;5013932;28;20070;-66
2020/12/10 09:41:46;;;;;;;49.80;15.57;;;;;;;1.95;100.00;100216.88;5013283;28;20049;-67
2020/12/10 09:44:12;;;;;;;51.37;13.23;;;;;;;1.97;100.00;100215.22;5012275;28;20083;-67
2020/12/10 09:46:37;;;;;;;61.90;14.17;;;;;;;2.00;100.00;100210.13;5012973;28;20026;-67
2020/12/10 09:49:03;;;;;;;55.23;14.60;;;;;;;2.03;100.00;100212.78;5013698;28;20025;-67
2020/12/10 09:51:36;;;;;;;52.17;15.30;;;;;;;2.00;100.00;100195.53;5011217;28;20077;-67
2020/12/10 09:54:08;;;;;;;48.87;13.73;;;;;;;2.03;100.00;100198.19;5013148;28;20037;-68
2020/12/10 09:59:14;;;;;;;50.60;14.47;;;;;;;2.06;100.00;100184.53;5013544;28;20034;-67
2020/12/10 10:01:45;;;;;;;55.20;13.33;;;;;;;2.09;100.00;100187.19;5012944;28;20616;-67
2020/12/10 10:04:10;;;;;;;45.67;12.67;;;;;;;2.09;100.00;100189.78;5013511;28;20288;-69
2020/12/10 10:06:36;;;;;;;44.57;13.67;;;;;;;2.12;100.00;100189.84;5027696;28;20763;-67
2020/12/10 10:09:03;;;;;;;50.50;12.77;;;;;;;2.17;100.00;100198.56;5025252;28;20086;-67
2020/12/10 10:11:29;;;;;;;48.57;13.87;;;;;;;2.20;100.00;100196.09;5012680;28;20017;-68
2020/12/10 10:13:54;;;;;;;45.97;12.50;;;;;;;2.25;100.00;100186.75;5034813;28;20787;-67
2020/12/10 10:16:19;;;;;;;46.30;13.80;;;;;;;2.27;100.00;100185.09;5002873;28;20021;-67
2020/12/10 10:18:45;;;;;;;41.20;12.10;;;;;;;2.30;100.00;100185.19;5032351;28;20032;-67
2020/12/10 10:21:10;;;;;;;44.60;12.03;;;;;;;2.29;100.00;100179.97;5027411;28;20033;-66
2020/12/10 10:23:36;;;;;;;41.63;11.23;;;;;;;2.29;100.00;100178.25;5023866;28;20030;-67
2020/12/10 10:26:01;;;;;;;43.87;11.93;;;;;;;2.28;100.00;100180.78;5012562;28;20111;-67
2020/12/10 10:28:27;;;;;;;49.57;12.47;;;;;;;2.30;100.00;100185.19;5012638;28;20483;-67
2020/12/10 10:30:52;;;;;;;44.07;12.40;;;;;;;2.34;100.00;100181.84;5011472;28;20030;-67
2020/12/10 10:33:22;;;;;;;43.00;12.17;;;;;;;2.35;100.00;100178.44;5012255;28;20079;-67
2020/12/10 10:35:48;;;;;;;35.53;10.73;;;;;;;2.35;100.00;100177.56;5012463;28;20049;-67
2020/12/10 10:38:13;;;;;;;42.23;11.77;;;;;;;2.38;100.00;100179.34;5012831;28;20269;-66
2020/12/10 10:40:39;;;;;;;43.60;11.37;;;;;;;2.32;100.00;100175.78;5011804;28;20026;-68
2020/12/10 10:43:05;;;;;;;37.63;10.23;;;;;;;2.35;100.00;100168.09;5012311;28;20025;-67
2020/12/10 10:45:30;;;;;;;41.30;11.07;;;;;;;2.40;100.00;100172.50;5012479;28;20057;-67
2020/12/10 10:47:55;;;;;;;31.70;10.43;;;;;;;2.42;100.00;100165.66;5013566;28;20030;-67
2020/12/10 10:50:21;;;;;;;34.03;9.63;;;;;;;2.44;100.00;100166.59;5012788;28;20030;-67
2020/12/10 10:52:46;;;;;;;41.27;10.63;;;;;;;2.41;100.00;100162.22;5023990;28;20022;-68
2020/12/10 10:55:12;;;;;;;32.07;9.00;;;;;;;2.41;100.00;100156.19;5029504;28;20025;-67
2020/12/10 10:57:37;;;;;;;37.20;9.80;;;;;;;2.43;100.00;100160.56;5018915;28;20176;-66
2020/12/10 11:00:04;;;;;;;38.13;10.27;;;;;;;2.43;100.00;100165.75;5019198;28;20033;-67
2020/12/10 11:02:29;;;;;;;35.40;10.83;;;;;;;2.42;100.00;100156.22;5031597;28;20461;-67
2020/12/10 11:04:55;;;;;;;37.23;10.83;;;;;;;2.41;100.00;100161.34;5025583;28;20269;-66
2020/12/10 11:07:21;;;;;;;36.97;10.27;;;;;;;2.39;100.00;100157.84;5012391;28;20500;-67
2020/12/10 11:09:46;;;;;;;31.93;9.90;;;;;;;2.42;100.00;100152.78;5014715;28;20428;-67
2020/12/10 11:12:13;;;;;;;34.13;10.60;;;;;;;2.45;100.00;100155.44;5028242;28;20057;-66
2020/12/10 11:14:39;;;;;;;37.83;10.17;;;;;;;2.43;100.00;100149.38;5011704;28;20022;-66